Big Brook, Canada
Current Conditions -  °F | °C
As of 9:00 PM on Friday 28 Nov 2014 (Local Time) from CYAY Reporting Station
Light Snow Light Snow  
Wind Chill: -11°   Ceiling: 4400
Heat Index: -7°   Visibility: 9mi
Dew Point: -9°   Wind: 6mph
Humidity: 86%   Direction: 280°W
Pressure: 29.92"   Gusts: NA
Location:  51.51°N, 56.14°W
Report Text: CYAY 290000Z AUTO 28005KT 9SM -SN OVC044 M07/M09 A2992 RMK SLP136
Loading
Personal Weather Stations






























Interactive Weather Map New forecast layout! Learn more

10-Day Weather Forecast

Advertisements
Track Severe Weather on mobile